sensor_id;sensor_type;location;lat;lon;timestamp;P1;durP1;ratioP1;P2;durP2;ratioP2
21128;SDS011;10722;51.910;8.352;2023-10-31T00:00:40;12.77;;;5.18;;
21128;SDS011;10722;51.910;8.352;2023-10-31T00:03:25;12.98;;;5.40;;
21128;SDS011;10722;51.910;8.352;2023-10-31T00:06:10;13.13;;;5.60;;
21128;SDS011;10722;51.910;8.352;2023-10-31T00:08:55;14.45;;;6.25;;
21128;SDS011;10722;51.910;8.352;2023-10-31T00:11:43;14.30;;;6.20;;
21128;SDS011;10722;51.910;8.352;2023-10-31T00:14:28;13.38;;;6.22;;
21128;SDS011;10722;51.910;8.352;2023-10-31T00:17:15;13.07;;;5.93;;
21128;SDS011;10722;51.910;8.352;2023-10-31T00:20:01;14.85;;;6.25;;
21128;SDS011;10722;51.910;8.352;2023-10-31T00:22:46;12.25;;;5.38;;
21128;SDS011;10722;51.910;8.352;2023-10-31T00:25:31;12.35;;;5.38;;
21128;SDS011;10722;51.910;8.352;2023-10-31T00:28:16;13.25;;;5.32;;
21128;SDS011;10722;51.910;8.352;2023-10-31T00:31:01;12.90;;;5.40;;
21128;SDS011;10722;51.910;8.352;2023-10-31T00:33:47;13.60;;;5.88;;
21128;SDS011;10722;51.910;8.352;2023-10-31T00:36:32;15.55;;;6.13;;
21128;SDS011;10722;51.910;8.352;2023-10-31T00:39:16;14.15;;;6.03;;
21128;SDS011;10722;51.910;8.352;2023-10-31T00:42:01;13.75;;;6.10;;
21128;SDS011;10722;51.910;8.352;2023-10-31T00:44:46;13.85;;;5.90;;
21128;SDS011;10722;51.910;8.352;2023-10-31T00:47:31;14.73;;;6.07;;
21128;SDS011;10722;51.910;8.352;2023-10-31T00:50:17;15.00;;;5.95;;
21128;SDS011;10722;51.910;8.352;2023-10-31T00:53:02;14.95;;;6.00;;
21128;SDS011;10722;51.910;8.352;2023-10-31T00:55:47;14.18;;;5.82;;
21128;SDS011;10722;51.910;8.352;2023-10-31T00:58:32;14.38;;;5.90;;
21128;SDS011;10722;51.910;8.352;2023-10-31T01:01:17;14.48;;;5.55;;
21128;SDS011;10722;51.910;8.352;2023-10-31T01:04:02;14.68;;;6.10;;
21128;SDS011;10722;51.910;8.352;2023-10-31T01:06:48;13.20;;;5.70;;
21128;SDS011;10722;51.910;8.352;2023-10-31T01:09:33;13.55;;;5.68;;
21128;SDS011;10722;51.910;8.352;2023-10-31T01:12:17;11.10;;;4.82;;
21128;SDS011;10722;51.910;8.352;2023-10-31T01:15:02;10.93;;;4.40;;
21128;SDS011;10722;51.910;8.352;2023-10-31T01:17:48;12.05;;;4.88;;
21128;SDS011;10722;51.910;8.352;2023-10-31T01:20:32;9.93;;;4.45;;
21128;SDS011;10722;51.910;8.352;2023-10-31T01:23:17;11.88;;;4.68;;
21128;SDS011;10722;51.910;8.352;2023-10-31T01:26:02;12.85;;;4.78;;
21128;SDS011;10722;51.910;8.352;2023-10-31T01:28:47;9.40;;;4.30;;
21128;SDS011;10722;51.910;8.352;2023-10-31T01:31:32;11.75;;;4.85;;
21128;SDS011;10722;51.910;8.352;2023-10-31T01:34:23;9.25;;;4.43;;
21128;SDS011;10722;51.910;8.352;2023-10-31T01:37:08;11.07;;;5.07;;
21128;SDS011;10722;51.910;8.352;2023-10-31T01:39:53;10.40;;;4.82;;
21128;SDS011;10722;51.910;8.352;2023-10-31T01:42:38;11.55;;;4.85;;
21128;SDS011;10722;51.910;8.352;2023-10-31T01:45:24;11.27;;;5.43;;
21128;SDS011;10722;51.910;8.352;2023-10-31T01:48:09;11.50;;;5.28;;
21128;SDS011;10722;51.910;8.352;2023-10-31T01:50:54;12.10;;;5.63;;
21128;SDS011;10722;51.910;8.352;2023-10-31T01:53:40;12.90;;;7.17;;
21128;SDS011;10722;51.910;8.352;2023-10-31T01:56:26;15.87;;;8.30;;
21128;SDS011;10722;51.910;8.352;2023-10-31T01:59:11;13.93;;;7.43;;
21128;SDS011;10722;51.910;8.352;2023-10-31T02:01:56;14.93;;;9.27;;
21128;SDS011;10722;51.910;8.352;2023-10-31T02:04:42;14.10;;;8.70;;
21128;SDS011;10722;51.910;8.352;2023-10-31T02:07:27;14.57;;;8.20;;
21128;SDS011;10722;51.910;8.352;2023-10-31T02:10:12;8.57;;;3.53;;
21128;SDS011;10722;51.910;8.352;2023-10-31T02:12:57;8.83;;;3.90;;
21128;SDS011;10722;51.910;8.352;2023-10-31T02:15:43;7.00;;;3.10;;
21128;SDS011;10722;51.910;8.352;2023-10-31T02:18:28;6.87;;;3.30;;
21128;SDS011;10722;51.910;8.352;2023-10-31T02:21:13;6.60;;;3.20;;
21128;SDS011;10722;51.910;8.352;2023-10-31T02:23:59;7.73;;;3.23;;
21128;SDS011;10722;51.910;8.352;2023-10-31T02:26:46;6.57;;;2.90;;
21128;SDS011;10722;51.910;8.352;2023-10-31T02:29:31;6.63;;;2.80;;
21128;SDS011;10722;51.910;8.352;2023-10-31T02:32:16;5.83;;;2.97;;
21128;SDS011;10722;51.910;8.352;2023-10-31T02:35:01;5.83;;;2.83;;
21128;SDS011;10722;51.910;8.352;2023-10-31T02:37:46;5.77;;;2.93;;
21128;SDS011;10722;51.910;8.352;2023-10-31T02:40:32;5.73;;;2.60;;
21128;SDS011;10722;51.910;8.352;2023-10-31T02:43:17;6.70;;;2.70;;
21128;SDS011;10722;51.910;8.352;2023-10-31T02:46:01;4.83;;;2.60;;
21128;SDS011;10722;51.910;8.352;2023-10-31T02:48:46;4.83;;;2.57;;
21128;SDS011;10722;51.910;8.352;2023-10-31T02:51:31;5.70;;;2.30;;
21128;SDS011;10722;51.910;8.352;2023-10-31T02:54:16;7.40;;;2.70;;
21128;SDS011;10722;51.910;8.352;2023-10-31T02:57:01;4.80;;;2.00;;
21128;SDS011;10722;51.910;8.352;2023-10-31T02:59:46;6.17;;;2.70;;
21128;SDS011;10722;51.910;8.352;2023-10-31T03:02:31;6.83;;;2.83;;
21128;SDS011;10722;51.910;8.352;2023-10-31T03:05:17;5.00;;;2.40;;
21128;SDS011;10722;51.910;8.352;2023-10-31T03:08:02;5.03;;;2.50;;
21128;SDS011;10722;51.910;8.352;2023-10-31T03:10:47;5.63;;;2.70;;
21128;SDS011;10722;51.910;8.352;2023-10-31T03:13:35;4.73;;;2.20;;
21128;SDS011;10722;51.910;8.352;2023-10-31T03:16:20;3.87;;;2.00;;
21128;SDS011;10722;51.910;8.352;2023-10-31T03:19:05;6.77;;;2.30;;
21128;SDS011;10722;51.910;8.352;2023-10-31T03:21:50;4.53;;;2.20;;
21128;SDS011;10722;51.910;8.352;2023-10-31T03:24:35;5.87;;;2.00;;
21128;SDS011;10722;51.910;8.352;2023-10-31T03:27:20;5.20;;;2.30;;
21128;SDS011;10722;51.910;8.352;2023-10-31T03:30:05;5.40;;;2.30;;
21128;SDS011;10722;51.910;8.352;2023-10-31T03:32:50;5.13;;;2.20;;
21128;SDS011;10722;51.910;8.352;2023-10-31T03:35:35;5.10;;;2.10;;
21128;SDS011;10722;51.910;8.352;2023-10-31T03:38:20;5.30;;;2.33;;
21128;SDS011;10722;51.910;8.352;2023-10-31T03:41:05;7.60;;;2.50;;
21128;SDS011;10722;51.910;8.352;2023-10-31T03:43:51;5.30;;;2.50;;
21128;SDS011;10722;51.910;8.352;2023-10-31T03:46:36;7.73;;;2.70;;
21128;SDS011;10722;51.910;8.352;2023-10-31T03:49:21;7.07;;;3.03;;
21128;SDS011;10722;51.910;8.352;2023-10-31T03:52:06;7.20;;;2.80;;
21128;SDS011;10722;51.910;8.352;2023-10-31T03:54:51;9.10;;;2.80;;
21128;SDS011;10722;51.910;8.352;2023-10-31T03:57:36;7.53;;;2.60;;
21128;SDS011;10722;51.910;8.352;2023-10-31T04:00:20;8.17;;;3.10;;
21128;SDS011;10722;51.910;8.352;2023-10-31T04:03:05;7.20;;;2.97;;
21128;SDS011;10722;51.910;8.352;2023-10-31T04:05:51;7.83;;;2.97;;
21128;SDS011;10722;51.910;8.352;2023-10-31T04:08:36;10.20;;;3.37;;
21128;SDS011;10722;51.910;8.352;2023-10-31T04:11:21;9.43;;;3.43;;
21128;SDS011;10722;51.910;8.352;2023-10-31T04:14:06;9.83;;;3.40;;
21128;SDS011;10722;51.910;8.352;2023-10-31T04:16:51;10.73;;;4.07;;
21128;SDS011;10722;51.910;8.352;2023-10-31T04:19:36;10.00;;;3.90;;
21128;SDS011;10722;51.910;8.352;2023-10-31T04:22:21;9.37;;;3.77;;
21128;SDS011;10722;51.910;8.352;2023-10-31T04:25:06;11.93;;;4.80;;
21128;SDS011;10722;51.910;8.352;2023-10-31T04:27:52;12.00;;;5.00;;
21128;SDS011;10722;51.910;8.352;2023-10-31T04:30:36;13.27;;;5.90;;
21128;SDS011;10722;51.910;8.352;2023-10-31T04:33:21;13.90;;;5.87;;
21128;SDS011;10722;51.910;8.352;2023-10-31T04:36:06;13.30;;;6.50;;
21128;SDS011;10722;51.910;8.352;2023-10-31T04:38:52;14.37;;;6.93;;
21128;SDS011;10722;51.910;8.352;2023-10-31T04:41:37;16.10;;;7.30;;
21128;SDS011;10722;51.910;8.352;2023-10-31T04:44:22;16.63;;;8.00;;
21128;SDS011;10722;51.910;8.352;2023-10-31T04:47:07;17.43;;;8.07;;
21128;SDS011;10722;51.910;8.352;2023-10-31T04:49:52;17.33;;;8.13;;
21128;SDS011;10722;51.910;8.352;2023-10-31T04:52:37;16.90;;;8.53;;
21128;SDS011;10722;51.910;8.352;2023-10-31T04:55:22;16.23;;;8.20;;
21128;SDS011;10722;51.910;8.352;2023-10-31T04:58:07;16.33;;;8.53;;
21128;SDS011;10722;51.910;8.352;2023-10-31T05:00:51;16.43;;;9.60;;
21128;SDS011;10722;51.910;8.352;2023-10-31T05:03:36;18.20;;;9.40;;
21128;SDS011;10722;51.910;8.352;2023-10-31T05:06:22;19.10;;;9.20;;
21128;SDS011;10722;51.910;8.352;2023-10-31T05:09:08;19.30;;;10.20;;
21128;SDS011;10722;51.910;8.352;2023-10-31T05:11:54;20.20;;;10.37;;
21128;SDS011;10722;51.910;8.352;2023-10-31T05:14:39;19.73;;;10.73;;
21128;SDS011;10722;51.910;8.352;2023-10-31T05:17:25;19.40;;;10.30;;
21128;SDS011;10722;51.910;8.352;2023-10-31T05:20:10;21.00;;;10.90;;
21128;SDS011;10722;51.910;8.352;2023-10-31T05:22:56;21.40;;;10.97;;
21128;SDS011;10722;51.910;8.352;2023-10-31T05:25:40;20.53;;;11.93;;
21128;SDS011;10722;51.910;8.352;2023-10-31T05:28:26;20.97;;;12.47;;
21128;SDS011;10722;51.910;8.352;2023-10-31T05:31:10;22.30;;;11.63;;
21128;SDS011;10722;51.910;8.352;2023-10-31T05:33:55;23.10;;;13.40;;
21128;SDS011;10722;51.910;8.352;2023-10-31T05:36:40;22.60;;;12.43;;
21128;SDS011;10722;51.910;8.352;2023-10-31T05:39:25;22.43;;;13.40;;
21128;SDS011;10722;51.910;8.352;2023-10-31T05:42:10;25.37;;;15.03;;
21128;SDS011;10722;51.910;8.352;2023-10-31T05:44:54;25.27;;;14.20;;
21128;SDS011;10722;51.910;8.352;2023-10-31T05:47:40;23.07;;;14.30;;
21128;SDS011;10722;51.910;8.352;2023-10-31T05:50:25;23.43;;;14.73;;
21128;SDS011;10722;51.910;8.352;2023-10-31T05:53:10;28.37;;;16.63;;
21128;SDS011;10722;51.910;8.352;2023-10-31T05:55:55;26.13;;;16.13;;
21128;SDS011;10722;51.910;8.352;2023-10-31T05:58:40;26.53;;;16.93;;
21128;SDS011;10722;51.910;8.352;2023-10-31T06:01:26;26.53;;;16.23;;
21128;SDS011;10722;51.910;8.352;2023-10-31T06:04:11;27.87;;;16.10;;
21128;SDS011;10722;51.910;8.352;2023-10-31T06:06:55;26.80;;;16.17;;
21128;SDS011;10722;51.910;8.352;2023-10-31T06:09:41;27.10;;;16.07;;
21128;SDS011;10722;51.910;8.352;2023-10-31T06:12:26;28.33;;;17.67;;
21128;SDS011;10722;51.910;8.352;2023-10-31T06:15:11;28.13;;;18.53;;
21128;SDS011;10722;51.910;8.352;2023-10-31T06:17:56;29.07;;;18.43;;
21128;SDS011;10722;51.910;8.352;2023-10-31T06:20:41;27.87;;;17.07;;
21128;SDS011;10722;51.910;8.352;2023-10-31T06:23:26;26.13;;;17.30;;
21128;SDS011;10722;51.910;8.352;2023-10-31T06:26:14;25.40;;;14.67;;
21128;SDS011;10722;51.910;8.352;2023-10-31T06:28:59;25.20;;;15.00;;
21128;SDS011;10722;51.910;8.352;2023-10-31T06:32:04;27.83;;;14.37;;
21128;SDS011;10722;51.910;8.352;2023-10-31T06:34:50;22.97;;;13.03;;
21128;SDS011;10722;51.910;8.352;2023-10-31T06:37:34;21.97;;;12.97;;
21128;SDS011;10722;51.910;8.352;2023-10-31T06:40:19;22.03;;;13.13;;
21128;SDS011;10722;51.910;8.352;2023-10-31T06:43:05;21.03;;;11.47;;
21128;SDS011;10722;51.910;8.352;2023-10-31T06:45:50;20.83;;;12.37;;
21128;SDS011;10722;51.910;8.352;2023-10-31T06:48:35;21.63;;;12.03;;
21128;SDS011;10722;51.910;8.352;2023-10-31T06:51:20;22.13;;;12.60;;
21128;SDS011;10722;51.910;8.352;2023-10-31T06:54:23;22.03;;;12.20;;
21128;SDS011;10722;51.910;8.352;2023-10-31T06:57:23;21.47;;;11.53;;
21128;SDS011;10722;51.910;8.352;2023-10-31T07:00:08;20.67;;;12.40;;
21128;SDS011;10722;51.910;8.352;2023-10-31T07:02:53;22.33;;;12.50;;
21128;SDS011;10722;51.910;8.352;2023-10-31T07:05:39;22.13;;;11.67;;
21128;SDS011;10722;51.910;8.352;2023-10-31T07:08:24;21.40;;;12.50;;
21128;SDS011;10722;51.910;8.352;2023-10-31T07:11:09;23.60;;;13.03;;
21128;SDS011;10722;51.910;8.352;2023-10-31T07:13:55;22.93;;;12.53;;
21128;SDS011;10722;51.910;8.352;2023-10-31T07:16:39;24.20;;;13.00;;
21128;SDS011;10722;51.910;8.352;2023-10-31T07:19:24;24.77;;;14.07;;
21128;SDS011;10722;51.910;8.352;2023-10-31T07:22:09;27.23;;;14.67;;
21128;SDS011;10722;51.910;8.352;2023-10-31T07:24:54;57.97;;;34.83;;
21128;SDS011;10722;51.910;8.352;2023-10-31T07:27:39;19.90;;;9.43;;
21128;SDS011;10722;51.910;8.352;2023-10-31T07:30:24;18.43;;;8.73;;
21128;SDS011;10722;51.910;8.352;2023-10-31T07:33:10;16.23;;;7.20;;
21128;SDS011;10722;51.910;8.352;2023-10-31T07:35:55;15.17;;;7.00;;
21128;SDS011;10722;51.910;8.352;2023-10-31T07:38:40;12.17;;;4.67;;
21128;SDS011;10722;51.910;8.352;2023-10-31T07:41:25;10.00;;;3.40;;
21128;SDS011;10722;51.910;8.352;2023-10-31T07:44:10;7.67;;;2.70;;
21128;SDS011;10722;51.910;8.352;2023-10-31T07:46:54;9.30;;;3.50;;
21128;SDS011;10722;51.910;8.352;2023-10-31T07:49:39;11.80;;;3.97;;
21128;SDS011;10722;51.910;8.352;2023-10-31T07:52:25;10.87;;;4.13;;
21128;SDS011;10722;51.910;8.352;2023-10-31T07:55:10;11.17;;;4.33;;
21128;SDS011;10722;51.910;8.352;2023-10-31T07:57:58;12.30;;;4.30;;
21128;SDS011;10722;51.910;8.352;2023-10-31T08:00:44;13.57;;;5.07;;
21128;SDS011;10722;51.910;8.352;2023-10-31T08:03:28;14.37;;;6.10;;
21128;SDS011;10722;51.910;8.352;2023-10-31T08:06:14;15.43;;;6.83;;
21128;SDS011;10722;51.910;8.352;2023-10-31T08:08:59;15.17;;;6.93;;
21128;SDS011;10722;51.910;8.352;2023-10-31T08:11:44;16.47;;;7.10;;
21128;SDS011;10722;51.910;8.352;2023-10-31T08:14:29;15.17;;;7.10;;
21128;SDS011;10722;51.910;8.352;2023-10-31T08:17:15;15.17;;;7.40;;
21128;SDS011;10722;51.910;8.352;2023-10-31T08:19:59;15.27;;;7.53;;
21128;SDS011;10722;51.910;8.352;2023-10-31T08:22:44;15.10;;;6.90;;
21128;SDS011;10722;51.910;8.352;2023-10-31T08:25:30;16.17;;;7.37;;
21128;SDS011;10722;51.910;8.352;2023-10-31T08:28:15;14.33;;;6.67;;
21128;SDS011;10722;51.910;8.352;2023-10-31T08:31:00;15.97;;;6.67;;
21128;SDS011;10722;51.910;8.352;2023-10-31T08:33:45;15.17;;;6.20;;
21128;SDS011;10722;51.910;8.352;2023-10-31T08:36:29;13.73;;;5.70;;
21128;SDS011;10722;51.910;8.352;2023-10-31T08:39:14;13.63;;;5.23;;
21128;SDS011;10722;51.910;8.352;2023-10-31T08:41:59;14.37;;;5.57;;
21128;SDS011;10722;51.910;8.352;2023-10-31T08:44:44;13.53;;;5.30;;
21128;SDS011;10722;51.910;8.352;2023-10-31T08:47:30;14.63;;;5.87;;
21128;SDS011;10722;51.910;8.352;2023-10-31T08:50:15;14.13;;;5.50;;
21128;SDS011;10722;51.910;8.352;2023-10-31T08:53:00;14.57;;;5.57;;
21128;SDS011;10722;51.910;8.352;2023-10-31T08:55:46;13.30;;;5.67;;
21128;SDS011;10722;51.910;8.352;2023-10-31T08:58:32;13.97;;;5.60;;
21128;SDS011;10722;51.910;8.352;2023-10-31T09:01:17;14.17;;;5.30;;
21128;SDS011;10722;51.910;8.352;2023-10-31T09:04:02;13.93;;;6.23;;
21128;SDS011;10722;51.910;8.352;2023-10-31T09:06:47;15.17;;;6.50;;
21128;SDS011;10722;51.910;8.352;2023-10-31T09:09:32;16.10;;;7.20;;
21128;SDS011;10722;51.910;8.352;2023-10-31T09:12:17;18.77;;;8.70;;
21128;SDS011;10722;51.910;8.352;2023-10-31T09:15:02;16.80;;;8.57;;
21128;SDS011;10722;51.910;8.352;2023-10-31T09:17:48;19.07;;;9.13;;
21128;SDS011;10722;51.910;8.352;2023-10-31T09:20:35;19.60;;;9.77;;
21128;SDS011;10722;51.910;8.352;2023-10-31T09:23:20;19.47;;;10.17;;
21128;SDS011;10722;51.910;8.352;2023-10-31T09:26:05;21.33;;;11.10;;
21128;SDS011;10722;51.910;8.352;2023-10-31T09:28:49;21.13;;;10.90;;
21128;SDS011;10722;51.910;8.352;2023-10-31T09:31:35;21.57;;;11.77;;
21128;SDS011;10722;51.910;8.352;2023-10-31T09:34:20;23.57;;;11.90;;
21128;SDS011;10722;51.910;8.352;2023-10-31T09:37:05;21.67;;;11.57;;
21128;SDS011;10722;51.910;8.352;2023-10-31T09:39:49;23.43;;;12.40;;
21128;SDS011;10722;51.910;8.352;2023-10-31T09:42:34;21.93;;;12.10;;
21128;SDS011;10722;51.910;8.352;2023-10-31T09:45:19;21.63;;;12.70;;
21128;SDS011;10722;51.910;8.352;2023-10-31T09:48:05;21.87;;;10.93;;
21128;SDS011;10722;51.910;8.352;2023-10-31T09:50:50;22.40;;;11.47;;
21128;SDS011;10722;51.910;8.352;2023-10-31T09:53:37;21.90;;;12.20;;
21128;SDS011;10722;51.910;8.352;2023-10-31T09:56:22;21.83;;;11.00;;
21128;SDS011;10722;51.910;8.352;2023-10-31T09:59:07;22.83;;;12.43;;
21128;SDS011;10722;51.910;8.352;2023-10-31T10:01:52;21.90;;;12.80;;
21128;SDS011;10722;51.910;8.352;2023-10-31T10:04:38;21.13;;;12.07;;
21128;SDS011;10722;51.910;8.352;2023-10-31T10:07:23;21.30;;;12.00;;
21128;SDS011;10722;51.910;8.352;2023-10-31T10:10:10;20.80;;;10.50;;
21128;SDS011;10722;51.910;8.352;2023-10-31T10:12:56;22.97;;;12.70;;
21128;SDS011;10722;51.910;8.352;2023-10-31T10:15:47;16.13;;;7.07;;
21128;SDS011;10722;51.910;8.352;2023-10-31T10:18:34;18.70;;;10.13;;
21128;SDS011;10722;51.910;8.352;2023-10-31T10:21:20;20.40;;;11.67;;
21128;SDS011;10722;51.910;8.352;2023-10-31T10:24:05;23.33;;;12.17;;
21128;SDS011;10722;51.910;8.352;2023-10-31T10:26:50;22.20;;;12.50;;
21128;SDS011;10722;51.910;8.352;2023-10-31T10:29:37;22.93;;;12.80;;
21128;SDS011;10722;51.910;8.352;2023-10-31T10:32:23;23.37;;;13.40;;
21128;SDS011;10722;51.910;8.352;2023-10-31T10:35:08;24.13;;;12.57;;
21128;SDS011;10722;51.910;8.352;2023-10-31T10:37:53;22.83;;;13.20;;
21128;SDS011;10722;51.910;8.352;2023-10-31T10:40:40;22.67;;;13.30;;
21128;SDS011;10722;51.910;8.352;2023-10-31T10:43:27;24.33;;;13.57;;
21128;SDS011;10722;51.910;8.352;2023-10-31T10:46:15;20.13;;;11.57;;
21128;SDS011;10722;51.910;8.352;2023-10-31T10:49:03;20.80;;;11.97;;
21128;SDS011;10722;51.910;8.352;2023-10-31T10:51:53;19.37;;;10.63;;
21128;SDS011;10722;51.910;8.352;2023-10-31T10:57:57;22.13;;;12.53;;
21128;SDS011;10722;51.910;8.352;2023-10-31T11:00:45;24.73;;;14.37;;
21128;SDS011;10722;51.910;8.352;2023-10-31T11:03:31;23.10;;;14.77;;
21128;SDS011;10722;51.910;8.352;2023-10-31T11:06:16;24.73;;;14.90;;
21128;SDS011;10722;51.910;8.352;2023-10-31T11:09:04;25.03;;;16.50;;
21128;SDS011;10722;51.910;8.352;2023-10-31T11:11:50;25.17;;;15.83;;
21128;SDS011;10722;51.910;8.352;2023-10-31T11:14:36;26.73;;;17.30;;
21128;SDS011;10722;51.910;8.352;2023-10-31T11:17:24;30.40;;;19.73;;
21128;SDS011;10722;51.910;8.352;2023-10-31T11:20:13;29.87;;;20.27;;
21128;SDS011;10722;51.910;8.352;2023-10-31T11:23:00;31.13;;;20.07;;
21128;SDS011;10722;51.910;8.352;2023-10-31T11:25:48;31.70;;;21.87;;
21128;SDS011;10722;51.910;8.352;2023-10-31T11:28:34;32.47;;;22.10;;
21128;SDS011;10722;51.910;8.352;2023-10-31T11:31:20;31.93;;;21.93;;
21128;SDS011;10722;51.910;8.352;2023-10-31T11:34:05;34.23;;;22.83;;
21128;SDS011;10722;51.910;8.352;2023-10-31T11:36:51;34.53;;;22.40;;
21128;SDS011;10722;51.910;8.352;2023-10-31T11:39:36;31.20;;;21.40;;
21128;SDS011;10722;51.910;8.352;2023-10-31T11:42:21;30.83;;;20.90;;
21128;SDS011;10722;51.910;8.352;2023-10-31T11:45:07;31.80;;;20.37;;
21128;SDS011;10722;51.910;8.352;2023-10-31T11:47:53;30.13;;;19.90;;
21128;SDS011;10722;51.910;8.352;2023-10-31T11:50:38;29.37;;;18.80;;
21128;SDS011;10722;51.910;8.352;2023-10-31T11:53:23;27.53;;;17.23;;
21128;SDS011;10722;51.910;8.352;2023-10-31T11:56:09;26.73;;;16.63;;
21128;SDS011;10722;51.910;8.352;2023-10-31T11:58:55;26.77;;;17.43;;
21128;SDS011;10722;51.910;8.352;2023-10-31T12:01:45;26.60;;;15.43;;
21128;SDS011;10722;51.910;8.352;2023-10-31T12:04:31;25.50;;;15.33;;
21128;SDS011;10722;51.910;8.352;2023-10-31T12:07:15;22.77;;;15.57;;
21128;SDS011;10722;51.910;8.352;2023-10-31T12:10:01;27.93;;;16.13;;
21128;SDS011;10722;51.910;8.352;2023-10-31T12:12:45;23.63;;;14.70;;
21128;SDS011;10722;51.910;8.352;2023-10-31T12:15:30;26.50;;;15.67;;
21128;SDS011;10722;51.910;8.352;2023-10-31T12:18:17;29.03;;;16.77;;
21128;SDS011;10722;51.910;8.352;2023-10-31T12:21:03;26.63;;;17.53;;
21128;SDS011;10722;51.910;8.352;2023-10-31T12:23:49;27.50;;;17.97;;
21128;SDS011;10722;51.910;8.352;2023-10-31T12:26:34;28.23;;;18.30;;
21128;SDS011;10722;51.910;8.352;2023-10-31T12:29:20;97.10;;;69.27;;
21128;SDS011;10722;51.910;8.352;2023-10-31T12:32:06;29.37;;;19.10;;
21128;SDS011;10722;51.910;8.352;2023-10-31T12:34:56;33.67;;;20.23;;
21128;SDS011;10722;51.910;8.352;2023-10-31T12:37:43;26.03;;;18.23;;
21128;SDS011;10722;51.910;8.352;2023-10-31T12:40:29;29.57;;;19.47;;
21128;SDS011;10722;51.910;8.352;2023-10-31T12:43:15;26.63;;;19.07;;
21128;SDS011;10722;51.910;8.352;2023-10-31T12:46:23;25.43;;;17.50;;
21128;SDS011;10722;51.910;8.352;2023-10-31T12:49:16;25.40;;;17.30;;
21128;SDS011;10722;51.910;8.352;2023-10-31T12:52:02;28.67;;;18.10;;
21128;SDS011;10722;51.910;8.352;2023-10-31T12:54:49;29.83;;;17.80;;
21128;SDS011;10722;51.910;8.352;2023-10-31T12:57:35;31.73;;;19.37;;
21128;SDS011;10722;51.910;8.352;2023-10-31T13:00:20;31.40;;;19.73;;
21128;SDS011;10722;51.910;8.352;2023-10-31T13:03:07;31.43;;;18.60;;
21128;SDS011;10722;51.910;8.352;2023-10-31T13:05:53;33.57;;;19.77;;
21128;SDS011;10722;51.910;8.352;2023-10-31T13:08:38;33.13;;;20.57;;
21128;SDS011;10722;51.910;8.352;2023-10-31T13:11:23;31.87;;;20.80;;
21128;SDS011;10722;51.910;8.352;2023-10-31T13:14:08;34.77;;;21.70;;
21128;SDS011;10722;51.910;8.352;2023-10-31T13:16:53;33.57;;;20.30;;
21128;SDS011;10722;51.910;8.352;2023-10-31T13:19:38;36.03;;;22.13;;
21128;SDS011;10722;51.910;8.352;2023-10-31T13:22:23;37.57;;;23.07;;
21128;SDS011;10722;51.910;8.352;2023-10-31T13:25:09;32.57;;;21.80;;
21128;SDS011;10722;51.910;8.352;2023-10-31T13:27:55;37.03;;;23.30;;
21128;SDS011;10722;51.910;8.352;2023-10-31T13:30:40;37.80;;;22.93;;
21128;SDS011;10722;51.910;8.352;2023-10-31T13:33:25;36.00;;;21.90;;
21128;SDS011;10722;51.910;8.352;2023-10-31T13:36:10;33.00;;;22.03;;
21128;SDS011;10722;51.910;8.352;2023-10-31T13:38:55;32.87;;;20.77;;
21128;SDS011;10722;51.910;8.352;2023-10-31T13:41:39;33.47;;;20.67;;
21128;SDS011;10722;51.910;8.352;2023-10-31T13:44:24;35.67;;;19.70;;
21128;SDS011;10722;51.910;8.352;2023-10-31T13:47:10;33.50;;;20.73;;
21128;SDS011;10722;51.910;8.352;2023-10-31T13:49:55;32.97;;;18.90;;
21128;SDS011;10722;51.910;8.352;2023-10-31T13:52:40;31.93;;;19.43;;
21128;SDS011;10722;51.910;8.352;2023-10-31T13:55:25;37.03;;;22.17;;
21128;SDS011;10722;51.910;8.352;2023-10-31T13:58:10;34.53;;;21.33;;
21128;SDS011;10722;51.910;8.352;2023-10-31T14:00:55;32.53;;;21.00;;
21128;SDS011;10722;51.910;8.352;2023-10-31T14:03:40;37.40;;;21.67;;
21128;SDS011;10722;51.910;8.352;2023-10-31T14:06:26;36.23;;;21.77;;
21128;SDS011;10722;51.910;8.352;2023-10-31T14:09:10;34.73;;;20.83;;
21128;SDS011;10722;51.910;8.352;2023-10-31T14:11:56;37.03;;;21.57;;
21128;SDS011;10722;51.910;8.352;2023-10-31T14:14:41;35.53;;;20.73;;
21128;SDS011;10722;51.910;8.352;2023-10-31T14:17:26;34.67;;;21.63;;
21128;SDS011;10722;51.910;8.352;2023-10-31T14:20:11;40.50;;;22.17;;
21128;SDS011;10722;51.910;8.352;2023-10-31T14:22:56;38.80;;;21.30;;
21128;SDS011;10722;51.910;8.352;2023-10-31T14:25:41;38.10;;;22.20;;
21128;SDS011;10722;51.910;8.352;2023-10-31T14:28:28;39.53;;;23.10;;
21128;SDS011;10722;51.910;8.352;2023-10-31T14:31:13;36.27;;;21.20;;
21128;SDS011;10722;51.910;8.352;2023-10-31T14:33:59;34.23;;;21.10;;
21128;SDS011;10722;51.910;8.352;2023-10-31T14:36:44;33.67;;;19.83;;
21128;SDS011;10722;51.910;8.352;2023-10-31T14:39:29;29.73;;;18.10;;
21128;SDS011;10722;51.910;8.352;2023-10-31T14:42:14;28.90;;;17.03;;
21128;SDS011;10722;51.910;8.352;2023-10-31T14:44:59;29.27;;;16.47;;
21128;SDS011;10722;51.910;8.352;2023-10-31T14:47:44;25.07;;;15.80;;
21128;SDS011;10722;51.910;8.352;2023-10-31T14:50:29;26.53;;;14.00;;
21128;SDS011;10722;51.910;8.352;2023-10-31T14:53:17;29.77;;;14.00;;
21128;SDS011;10722;51.910;8.352;2023-10-31T14:56:03;26.13;;;13.13;;
21128;SDS011;10722;51.910;8.352;2023-10-31T14:58:48;24.23;;;11.57;;
21128;SDS011;10722;51.910;8.352;2023-10-31T15:01:33;22.43;;;11.10;;
21128;SDS011;10722;51.910;8.352;2023-10-31T15:04:18;19.73;;;10.97;;
21128;SDS011;10722;51.910;8.352;2023-10-31T15:07:03;21.03;;;9.90;;
21128;SDS011;10722;51.910;8.352;2023-10-31T15:09:49;22.77;;;9.83;;
21128;SDS011;10722;51.910;8.352;2023-10-31T15:12:33;21.38;;;9.32;;
21128;SDS011;10722;51.910;8.352;2023-10-31T15:15:18;22.17;;;9.73;;
21128;SDS011;10722;51.910;8.352;2023-10-31T15:18:03;20.80;;;8.90;;
21128;SDS011;10722;51.910;8.352;2023-10-31T15:20:48;19.25;;;8.73;;
21128;SDS011;10722;51.910;8.352;2023-10-31T15:23:33;21.63;;;9.03;;
21128;SDS011;10722;51.910;8.352;2023-10-31T15:26:19;22.93;;;8.97;;
21128;SDS011;10722;51.910;8.352;2023-10-31T15:29:05;21.63;;;8.70;;
21128;SDS011;10722;51.910;8.352;2023-10-31T15:31:50;19.93;;;8.47;;
21128;SDS011;10722;51.910;8.352;2023-10-31T15:34:35;22.00;;;8.83;;
21128;SDS011;10722;51.910;8.352;2023-10-31T15:37:20;22.67;;;10.07;;
21128;SDS011;10722;51.910;8.352;2023-10-31T15:40:06;19.83;;;9.80;;
21128;SDS011;10722;51.910;8.352;2023-10-31T15:42:52;23.27;;;9.73;;
21128;SDS011;10722;51.910;8.352;2023-10-31T15:45:37;23.07;;;10.20;;
21128;SDS011;10722;51.910;8.352;2023-10-31T15:48:22;26.67;;;10.20;;
21128;SDS011;10722;51.910;8.352;2023-10-31T15:51:11;26.17;;;10.47;;
21128;SDS011;10722;51.910;8.352;2023-10-31T15:53:56;22.53;;;8.50;;
21128;SDS011;10722;51.910;8.352;2023-10-31T15:56:41;24.07;;;10.27;;
21128;SDS011;10722;51.910;8.352;2023-10-31T15:59:26;21.03;;;10.03;;
21128;SDS011;10722;51.910;8.352;2023-10-31T16:02:11;19.43;;;9.83;;
21128;SDS011;10722;51.910;8.352;2023-10-31T16:04:57;25.20;;;11.00;;
21128;SDS011;10722;51.910;8.352;2023-10-31T16:07:42;25.27;;;10.50;;
21128;SDS011;10722;51.910;8.352;2023-10-31T16:10:27;23.60;;;10.00;;
21128;SDS011;10722;51.910;8.352;2023-10-31T16:13:12;22.93;;;9.73;;
21128;SDS011;10722;51.910;8.352;2023-10-31T16:15:57;23.10;;;10.37;;
21128;SDS011;10722;51.910;8.352;2023-10-31T16:18:42;22.90;;;10.67;;